Terminal Aerodrome Forecast
Issued by NWS

Home | Current Version | Previous Version | Text Only | Print | Product List | Glossary On
Versions: 1 2 3 4 5 6 7 8 9 10 11 12 13
000
FTUS45 KRIW 260500
TAFRKS
TAF
KRKS 260527Z 2606/2706 04025G35KT 3SM -SN BLSN SCT020 OVC035
     FM261000 06020G28KT 4SM -SN BLSN SCT018 OVC025
     FM261200 06012G22KT P6SM VCSH OVC025
     FM261500 04010KT P6SM BKN035=

USA.gov is the U.S. government's official web portal to all federal, state and local government web resources and services.